Terminal Aerodrome Forecast
Issued by NWS Grand Forks, ND

Home | Current Version | Previous Version | Text Only | Print | Product List | Glossary Off
Versions: 1 2 3 4 5 6 7 8 9 10 11 12 13 14 15 16 17 18 19 20

000
FTUS43 KFGF 141139
TAFGFK
TAF
KGFK 141139Z 1412/1512 19013G21KT P6SM OVC015
      TEMPO 1414/1417 1/2SM SN
     FM141700 33019G27KT 2SM BLSN BKN040
      TEMPO 1417/1419 1SM -SN OVC025
     FM142200 34022G31KT 4SM BLSN BKN030
     FM150200 34018KT P6SM BKN035
     FM150400 34017KT P6SM BKN020
     FM151100 34016G26KT 6SM BLSN BKN020=

USA.gov is the U.S. government's official web portal to all federal, state and local government web resources and services.